Aeroporto :
LOGIN :

Iscrizione | Disclaimer

   EN    FR    IT 

 










Sommario :    VFR   VFR Marginale   IFR   IFR Intensivo   IFR Molto Intensivo
Visibilità : 
Base nubi : 
>= 8 km
>= 3000ft
5 / 8 km
1000 / 3000 ft
1500m / 5 km
500 / 1000 ft
800 / 1500m
200 / 500 ft
< 800m
< 200 ft
Simboli :   Temporali  Nebbia  Neve Forte  Precipitazioni Forti  Vento > 20 kt
SIGMETs :   Varie  Temporali  Ghiacco  Turbolenza  Onda orograficha  Ceneri Vulcaniche






- Altitudine del aeroporto : 90 ft
- Codice IATA : NTE


LFRS - Nantes

ULTIMO METAR :
  • 171500Z AUTO 03005KT 350V060 9999 FEW011 OVC041 07/05 Q1009 NOSIG

METARs OBSOLETI :
  • 171430Z AUTO 03005KT 350V060 9999 FEW012 OVC041 07/05 Q1009 NOSIG
  • 171400Z AUTO 04006KT 010V070 9999 SCT012 OVC041 08/05 Q1009 NOSIG
  • 171330Z AUTO 02006KT 340V050 9999 SCT008 OVC038 07/06 Q1009 NOSIG
  • 171300Z AUTO 02004KT 340V070 8000 FEW008 OVC039 07/05 Q1009 NOSIG
  • 171230Z AUTO VRB03KT 9999 SCT005 OVC039 06/06 Q1009 NOSIG

TAF AMD TAF LFRS
Valido dal 17 a 12 ore il 18 a 18 ore UTC


171203Z 1712/1818 VRB03KT 4000 BR BKN003 BKN035
BECMG 1712/1714 9999 NSW SCT040
BECMG 1721/1724 3000 BR
TEMPO 1800/1809 0500 FG VV///
BECMG 1810/1812 9999 NSW
ATIS : +33 2 40 05 12 74



MetMap, La meteo Aeronautica in un colpo d'occhio ! - Copyright ORBIFLY Dicembre 2007 - Disclaimer

ORBIFLY MET'MAP TEAM :

Programmazione e sviluppo : Alexandra Zaïnal
Concezione e sviluppo : Baudouin d'Aumeries
Co-Programmazione e sviluppo : Marc-Olivier Méhu
Supporto tecnico e logistico : Manuel Goepfert
Aiuto per la traduzione : Arnaldo La Scala

Contatto : metmap@orbifly.com




FONTI E CREDITI :

   NOAA